Time;durP1;ratioP1;P1;durP2;ratioP2;P2;SDS_P1;SDS_P2;PMS_P1;PMS_P2;Temp;Humidity;BMP_temperature;BMP_pressure;BME280_temperature;BME280_humidity;BME280_pressure;Samples;Min_cycle;Max_cycle;Signal;HPM_P1;HPM_P2
2021/11/16 00:00:22;;;;;;;3.48;2.38;;;;;;;1.23;51.75;103118.64;455062;113;922511;-79
2021/11/16 00:01:27;;;;;;;2.94;2.22;;;;;;;1.22;51.83;103127.65;448485;116;930436;-79
2021/11/16 00:02:30;;;;;;;2.45;1.90;;;;;;;1.18;51.82;103123.42;448573;116;922713;-79
2021/11/16 00:03:34;;;;;;;2.32;2.04;;;;;;;1.14;51.79;103128.13;456839;114;922677;-79
2021/11/16 00:04:38;;;;;;;2.52;2.32;;;;;;;1.11;51.80;103130.11;454951;113;922640;-80
2021/11/16 00:05:42;;;;;;;2.50;2.26;;;;;;;1.07;51.80;103133.95;456171;114;922908;-79
2021/11/16 00:06:51;;;;;;;3.18;2.19;;;;;;;1.04;51.83;103136.83;456092;115;922650;-79
2021/11/16 00:07:52;;;;;;;4.98;2.77;;;;;;;1.01;51.84;103132.48;455641;114;923159;-78
2021/11/16 00:08:56;;;;;;;2.73;2.46;;;;;;;0.98;51.88;103124.63;455374;113;922513;-80
2021/11/16 00:10:00;;;;;;;5.99;3.24;;;;;;;0.94;51.89;103128.42;455609;116;922663;-79
2021/11/16 00:11:04;;;;;;;5.63;3.40;;;;;;;0.91;51.98;103123.25;456451;115;922642;-79
2021/11/16 00:12:08;;;;;;;4.17;3.30;;;;;;;0.88;52.01;103126.12;456488;115;922775;-79
2021/11/16 00:13:12;;;;;;;5.46;3.80;;;;;;;0.84;52.05;103130.80;455583;114;930273;-79
2021/11/16 00:14:17;;;;;;;3.99;3.44;;;;;;;0.80;52.14;103129.25;456465;113;922563;-78
2021/11/16 00:15:21;;;;;;;6.52;3.42;;;;;;;0.78;52.21;103135.65;456532;116;922620;-79
2021/11/16 00:16:26;;;;;;;4.03;3.03;;;;;;;0.75;52.25;103138.53;456481;113;922931;-80
2021/11/16 00:17:30;;;;;;;4.68;3.65;;;;;;;0.72;52.32;103144.92;455908;114;930619;-79
2021/11/16 00:18:35;;;;;;;4.44;3.14;;;;;;;0.71;52.51;103137.85;456118;114;930562;-78
2021/11/16 00:19:40;;;;;;;5.08;3.90;;;;;;;0.72;52.71;103144.92;438279;119;922553;-80
2021/11/16 00:20:45;;;;;;;3.62;2.83;;;;;;;0.75;52.90;103135.84;448329;117;922700;-79
2021/11/16 00:21:50;;;;;;;2.37;1.86;;;;;;;0.77;52.94;103137.47;448706;116;923516;-79
2021/11/16 00:22:54;;;;;;;3.06;2.52;;;;;;;0.80;52.96;103131.06;455793;114;922705;-79
2021/11/16 00:24:02;;;;;;;2.51;1.84;;;;;;;0.83;53.00;103126.38;456024;113;923230;-79
2021/11/16 00:26:13;;;;;;;2.33;2.13;;;;;;;0.89;53.00;103130.52;455610;114;922751;-79
2021/11/16 00:27:17;;;;;;;2.83;2.25;;;;;;;0.92;52.93;103127.67;456696;113;922852;-79
2021/11/16 00:28:21;;;;;;;2.52;1.97;;;;;;;0.93;52.85;103132.09;455775;113;930307;-79
2021/11/16 00:29:25;;;;;;;2.97;2.58;;;;;;;0.94;52.84;103120.37;456119;113;930357;-77
2021/11/16 00:30:29;;;;;;;2.13;1.85;;;;;;;0.96;52.85;103128.34;455402;114;922890;-80
2021/11/16 00:31:33;;;;;;;3.11;2.66;;;;;;;0.96;52.87;103134.58;456482;114;922463;-79
2021/11/16 00:32:37;;;;;;;2.51;1.97;;;;;;;0.97;52.94;103136.32;456142;115;930847;-79
2021/11/16 00:33:41;;;;;;;3.95;2.34;;;;;;;0.98;52.90;103140.74;455871;113;923218;-79
2021/11/16 00:34:45;;;;;;;3.36;2.65;;;;;;;0.97;52.92;103138.14;456418;113;922581;-79
2021/11/16 00:35:50;;;;;;;2.84;2.51;;;;;;;0.96;52.93;103136.40;456323;113;922878;-79
2021/11/16 00:36:55;;;;;;;3.85;2.55;;;;;;;0.97;53.03;103136.32;456370;113;922582;-79
2021/11/16 00:37:59;;;;;;;4.01;3.38;;;;;;;0.98;53.06;103135.37;456339;113;923069;-79
2021/11/16 00:39:03;;;;;;;7.36;6.44;;;;;;;0.99;53.09;103137.11;456345;114;922696;-79
2021/11/16 00:40:11;;;;;;;8.01;7.21;;;;;;;1.00;53.10;103136.13;456083;113;922728;-79
2021/11/16 00:41:15;;;;;;;9.25;7.40;;;;;;;1.01;53.12;103132.48;456287;114;923029;-78
2021/11/16 00:42:20;;;;;;;5.16;4.63;;;;;;;1.02;53.09;103134.22;455979;115;923181;-80
2021/11/16 00:43:23;;;;;;;4.26;3.89;;;;;;;1.02;52.99;103136.91;456396;115;922556;-80
2021/11/16 00:44:27;;;;;;;4.00;3.54;;;;;;;1.02;52.92;103136.91;456740;114;922612;-78
2021/11/16 00:45:31;;;;;;;4.62;3.89;;;;;;;1.00;52.87;103130.75;456049;113;922736;-78
2021/11/16 00:46:35;;;;;;;3.68;3.27;;;;;;;0.98;52.99;103137.19;455549;114;923149;-78
2021/11/16 00:47:41;;;;;;;3.95;3.56;;;;;;;0.95;53.00;103134.66;456030;114;922614;-79
2021/11/16 00:48:45;;;;;;;4.66;4.17;;;;;;;0.92;53.02;103133.05;455545;113;922896;-78
2021/11/16 00:49:50;;;;;;;6.32;5.09;;;;;;;0.91;53.13;103136.68;446457;116;922539;-79
2021/11/16 00:50:57;;;;;;;7.99;4.33;;;;;;;0.90;53.19;103124.20;456567;115;922581;-79
2021/11/16 00:52:03;;;;;;;5.33;4.83;;;;;;;0.91;53.24;103127.75;440178;118;922767;-79
2021/11/16 00:53:09;;;;;;;5.00;4.04;;;;;;;0.91;53.26;103114.32;440805;116;923195;-79
2021/11/16 00:54:12;;;;;;;3.72;3.25;;;;;;;0.92;53.28;103116.92;455600;114;922688;-80
2021/11/16 00:55:17;;;;;;;4.46;3.36;;;;;;;0.92;53.02;103108.87;456044;113;922955;-79
2021/11/16 00:56:23;;;;;;;4.76;3.51;;;;;;;0.90;53.01;103109.90;455717;115;922699;-78
2021/11/16 00:57:27;;;;;;;3.85;2.79;;;;;;;0.86;52.93;103119.97;456338;114;923279;-79
2021/11/16 00:58:31;;;;;;;3.66;3.35;;;;;;;0.81;52.83;103109.50;455840;113;922692;-78
2021/11/16 00:59:35;;;;;;;3.74;2.82;;;;;;;0.78;52.80;103116.85;456572;114;923071;-79
2021/11/16 01:00:39;;;;;;;4.38;3.11;;;;;;;0.74;52.86;103120.68;456093;115;922521;-79
2021/11/16 01:01:44;;;;;;;4.71;3.23;;;;;;;0.71;52.95;103116.38;456963;114;922481;-79
2021/11/16 01:02:49;;;;;;;8.19;3.10;;;;;;;0.70;52.96;103122.69;456642;115;922902;-79
2021/11/16 01:03:54;;;;;;;4.47;3.23;;;;;;;0.67;53.01;103112.11;457045;114;923554;-80
2021/11/16 01:04:58;;;;;;;3.99;2.93;;;;;;;0.66;53.01;103113.06;456826;113;922561;-78
2021/11/16 01:06:03;;;;;;;3.06;2.53;;;;;;;0.66;52.95;103109.54;456894;113;922284;-78
2021/11/16 01:07:06;;;;;;;3.02;2.67;;;;;;;0.64;52.91;103103.38;456680;113;922333;-79
2021/11/16 01:08:11;;;;;;;2.66;2.41;;;;;;;0.63;52.91;103098.96;457127;114;922765;-80
2021/11/16 01:09:15;;;;;;;4.51;2.88;;;;;;;0.63;52.98;103109.70;448414;116;922908;-79
2021/11/16 01:10:22;;;;;;;3.09;2.75;;;;;;;0.63;53.03;103104.33;448984;116;922692;-79
2021/11/16 01:11:26;;;;;;;3.52;2.82;;;;;;;0.62;52.98;103102.59;455499;113;922687;-79
2021/11/16 01:12:30;;;;;;;6.56;3.04;;;;;;;0.62;53.02;103107.96;456487;115;923292;-79
2021/11/16 01:13:35;;;;;;;5.51;4.14;;;;;;;0.62;53.06;103116.02;448267;116;922627;-79
2021/11/16 01:14:40;;;;;;;9.51;6.37;;;;;;;0.64;53.19;103111.44;448937;115;930730;-79
2021/11/16 01:15:45;;;;;;;12.30;8.94;;;;;;;0.65;53.19;103116.72;456384;113;922514;-79
2021/11/16 01:16:49;;;;;;;12.24;8.53;;;;;;;0.66;53.20;103105.00;456376;114;930723;-79
2021/11/16 01:17:53;;;;;;;10.91;7.45;;;;;;;0.67;53.19;103101.37;455934;114;922631;-79
2021/11/16 01:18:59;;;;;;;11.39;8.02;;;;;;;0.68;53.19;103113.84;455305;114;922605;-79
2021/11/16 01:20:06;;;;;;;10.60;7.33;;;;;;;0.69;53.17;103109.34;454780;113;930718;-78
2021/11/16 01:21:09;;;;;;;9.21;6.79;;;;;;;0.70;53.14;103113.77;456521;115;922642;-78
2021/11/16 01:22:15;;;;;;;8.71;6.67;;;;;;;0.71;53.12;103102.95;448081;116;922695;-78
2021/11/16 01:23:21;;;;;;;8.14;6.38;;;;;;;0.71;52.96;103112.82;449484;115;922796;-79
2021/11/16 01:24:26;;;;;;;10.62;6.23;;;;;;;0.68;52.90;103112.98;456458;113;922677;-79
2021/11/16 01:25:33;;;;;;;8.34;6.52;;;;;;;0.65;52.84;103122.09;452983;115;922684;-79
2021/11/16 01:26:36;;;;;;;6.39;5.45;;;;;;;0.62;52.78;103124.94;453162;114;923468;-79
2021/11/16 01:27:40;;;;;;;8.98;6.86;;;;;;;0.59;52.80;103129.62;453275;116;922563;-79
2021/11/16 01:28:44;;;;;;;10.13;6.69;;;;;;;0.54;52.89;103126.34;452953;115;923319;-78
2021/11/16 01:29:50;;;;;;;8.95;6.89;;;;;;;0.49;52.94;103125.75;452954;115;922767;-78
2021/11/16 01:30:58;;;;;;;8.62;6.42;;;;;;;0.45;53.05;103122.35;439820;118;922678;-79
2021/11/16 01:32:01;;;;;;;6.71;5.49;;;;;;;0.41;53.14;103127.04;442817;116;923140;-78
2021/11/16 01:33:07;;;;;;;9.30;5.94;;;;;;;0.39;53.29;103128.93;452753;114;923059;-79
2021/11/16 01:34:11;;;;;;;7.19;5.24;;;;;;;0.37;53.46;103130.86;452793;116;922589;-79
2021/11/16 01:35:15;;;;;;;7.89;4.62;;;;;;;0.36;53.53;103131.80;452712;115;922686;-79
2021/11/16 01:36:19;;;;;;;6.06;5.42;;;;;;;0.34;53.51;103133.70;453500;116;923400;-79
2021/11/16 01:37:23;;;;;;;6.53;5.20;;;;;;;0.31;53.47;103127.65;453505;114;922998;-78
2021/11/16 01:38:27;;;;;;;5.86;4.47;;;;;;;0.27;53.51;103124.28;451894;114;930558;-79
2021/11/16 01:39:31;;;;;;;7.86;5.06;;;;;;;0.23;53.55;103124.52;452670;115;923259;-80
2021/11/16 01:40:36;;;;;;;6.94;5.21;;;;;;;0.20;53.65;103124.70;453502;115;922501;-78
2021/11/16 01:41:40;;;;;;;6.49;5.32;;;;;;;0.17;53.77;103122.17;453072;114;930705;-79
2021/11/16 01:42:45;;;;;;;6.19;5.31;;;;;;;0.15;53.93;103116.05;453103;114;930531;-78
2021/11/16 01:43:49;;;;;;;6.15;5.36;;;;;;;0.14;54.06;103139.32;452979;115;922852;-79
2021/11/16 01:44:53;;;;;;;7.95;7.02;;;;;;;0.13;54.14;103129.53;452950;114;922698;-78
2021/11/16 01:46:02;;;;;;;8.35;7.04;;;;;;;0.12;54.15;103138.53;452919;115;922836;-78
2021/11/16 01:47:07;;;;;;;9.19;6.21;;;;;;;0.09;54.21;103135.16;452228;114;922720;-79
2021/11/16 01:48:11;;;;;;;7.59;5.99;;;;;;;0.05;54.21;103138.97;452855;114;922559;-78
2021/11/16 01:49:16;;;;;;;8.20;6.09;;;;;;;0.00;54.12;103142.75;444685;119;923215;-78
2021/11/16 01:50:22;;;;;;;10.66;6.75;;;;;;;-0.04;54.37;103140.32;446006;116;922705;-78
2021/11/16 01:51:29;;;;;;;7.84;6.84;;;;;;;-0.08;54.55;103142.31;452588;116;923357;-79
2021/11/16 01:52:32;;;;;;;6.40;5.68;;;;;;;-0.12;54.61;103146.13;445086;117;923338;-78
2021/11/16 01:53:37;;;;;;;8.09;5.63;;;;;;;-0.16;54.64;103135.63;434592;119;922703;-80
2021/11/16 01:54:40;;;;;;;6.57;5.66;;;;;;;-0.19;54.74;103143.84;437169;120;922609;-80
2021/11/16 01:55:45;;;;;;;7.12;5.77;;;;;;;-0.21;54.97;103141.23;445773;116;928545;-80
2021/11/16 01:56:48;;;;;;;6.16;4.71;;;;;;;-0.19;55.25;103136.67;444916;118;922474;-79
2021/11/16 01:57:54;;;;;;;9.32;7.68;;;;;;;-0.15;55.49;103140.04;445817;117;922126;-80
2021/11/16 01:58:59;;;;;;;10.10;8.75;;;;;;;-0.11;55.64;103136.27;436969;119;922508;-79
2021/11/16 02:00:09;;;;;;;10.73;8.94;;;;;;;-0.06;55.65;103128.83;436704;119;922618;-79
2021/11/16 02:01:13;;;;;;;10.69;9.46;;;;;;;-0.02;55.65;103136.62;437195;120;923152;-77
2021/11/16 02:02:17;;;;;;;10.29;8.36;;;;;;;0.03;55.63;103138.17;436751;119;930417;-77
2021/11/16 02:03:21;;;;;;;11.21;8.83;;;;;;;0.05;55.61;103136.29;437842;119;922695;-80
2021/11/16 02:04:25;;;;;;;11.57;9.32;;;;;;;0.04;55.54;103138.10;437357;119;922633;-79
2021/11/16 02:05:44;;;;;;;8.65;7.46;;;;;;;0.06;55.57;103137.99;437661;119;923306;-78
2021/11/16 02:06:48;;;;;;;9.92;8.62;;;;;;;0.05;55.50;103134.48;437770;119;923233;-78
2021/11/16 02:07:51;;;;;;;11.06;8.32;;;;;;;0.02;55.45;103133.75;437285;120;923338;-79
2021/11/16 02:08:58;;;;;;;11.52;8.07;;;;;;;-0.03;55.49;103129.52;435464;119;922742;-80
2021/11/16 02:10:04;;;;;;;10.82;8.13;;;;;;;-0.06;55.58;103129.70;436514;120;922643;-77
2021/11/16 02:11:08;;;;;;;9.63;8.32;;;;;;;-0.06;55.68;103131.52;442780;117;922964;-79
2021/11/16 02:12:11;;;;;;;13.88;8.59;;;;;;;-0.04;55.93;103132.28;436464;119;923095;-79
2021/11/16 02:13:22;;;;;;;10.84;9.05;;;;;;;-0.01;56.05;103127.63;436755;121;922808;-79
2021/11/16 02:14:26;;;;;;;8.90;8.04;;;;;;;0.03;56.09;103122.95;441959;118;922795;-80
2021/11/16 02:15:30;;;;;;;8.68;7.82;;;;;;;0.07;56.19;103121.83;436210;121;922610;-79
2021/11/16 02:16:36;;;;;;;8.98;7.72;;;;;;;0.11;56.25;103119.86;436364;119;922634;-77
2021/11/16 02:17:39;;;;;;;9.07;8.17;;;;;;;0.14;56.22;103122.36;442169;119;922539;-78
2021/11/16 02:18:44;;;;;;;9.44;8.06;;;;;;;0.16;56.23;103126.70;436789;119;922759;-79
2021/11/16 02:19:49;;;;;;;11.61;8.26;;;;;;;0.16;56.02;103129.38;435618;119;922638;-78
2021/11/16 02:20:53;;;;;;;8.40;7.54;;;;;;;0.16;55.94;103132.06;435614;121;922490;-78
2021/11/16 02:21:57;;;;;;;10.02;8.61;;;;;;;0.15;55.86;103132.14;444445;119;923184;-79
2021/11/16 02:23:01;;;;;;;9.09;7.26;;;;;;;0.12;55.73;103127.80;443921;118;922967;-76
2021/11/16 02:24:06;;;;;;;9.30;7.85;;;;;;;0.09;55.69;103132.48;444549;117;922694;-78
2021/11/16 02:25:10;;;;;;;8.58;6.78;;;;;;;0.05;55.81;103130.92;445476;118;922574;-79
2021/11/16 02:26:14;;;;;;;10.58;8.08;;;;;;;0.04;56.01;103123.82;449041;118;922840;-77
2021/11/16 02:27:18;;;;;;;9.14;7.39;;;;;;;0.04;56.14;103132.73;448947;117;930557;-79
2021/11/16 02:28:23;;;;;;;9.43;7.08;;;;;;;0.06;56.23;103132.63;447201;116;922543;-78
2021/11/16 02:29:26;;;;;;;8.21;7.05;;;;;;;0.07;56.27;103127.19;428981;120;922820;-80
2021/11/16 02:30:31;;;;;;;7.50;6.73;;;;;;;0.11;56.30;103135.95;430416;121;922787;-76
2021/11/16 02:31:36;;;;;;;7.48;6.71;;;;;;;0.11;56.18;103136.79;440030;118;922763;-79
2021/11/16 02:32:46;;;;;;;6.80;6.11;;;;;;;0.10;56.00;103134.22;432874;121;922571;-78
2021/11/16 02:33:50;;;;;;;7.36;6.32;;;;;;;0.06;55.94;103133.50;433894;120;925420;-77
2021/11/16 02:34:53;;;;;;;7.66;5.96;;;;;;;0.00;56.05;103132.02;437210;120;923109;-79
2021/11/16 02:35:57;;;;;;;7.63;6.58;;;;;;;-0.04;56.15;103130.47;440518;118;922812;-80
2021/11/16 02:37:01;;;;;;;7.72;6.69;;;;;;;-0.06;56.29;103134.20;432150;120;930648;-77
2021/11/16 02:38:06;;;;;;;7.80;6.94;;;;;;;-0.08;56.45;103126.23;436363;119;922731;-77
2021/11/16 02:39:12;;;;;;;7.22;6.34;;;;;;;-0.05;56.57;103133.22;434343;120;922444;-78
2021/11/16 02:40:15;;;;;;;7.19;6.46;;;;;;;-0.04;56.59;103125.09;433637;120;922513;-79
2021/11/16 02:41:19;;;;;;;8.35;6.29;;;;;;;-0.02;56.54;103125.89;434635;121;922487;-77
2021/11/16 02:42:25;;;;;;;7.43;6.55;;;;;;;0.01;56.58;103124.84;433772;121;922547;-78
2021/11/16 02:43:31;;;;;;;8.25;7.02;;;;;;;0.02;56.57;103126.58;434228;120;922390;-78
2021/11/16 02:44:35;;;;;;;11.05;9.25;;;;;;;0.02;56.42;103128.39;434924;120;922316;-79
2021/11/16 02:45:39;;;;;;;11.32;8.37;;;;;;;-0.02;56.28;103127.70;434506;121;922255;-79
2021/11/16 02:46:45;;;;;;;10.92;8.51;;;;;;;-0.07;56.25;103124.41;434663;120;922151;-77
2021/11/16 02:47:50;;;;;;;9.34;8.04;;;;;;;-0.12;56.26;103129.17;434008;120;922503;-77
2021/11/16 02:48:54;;;;;;;8.59;7.64;;;;;;;-0.18;56.27;103126.81;433837;121;922863;-79
2021/11/16 02:49:58;;;;;;;7.70;6.95;;;;;;;-0.23;56.34;103123.52;433244;121;930621;-78
2021/11/16 02:51:05;;;;;;;8.78;7.68;;;;;;;-0.25;56.44;103130.77;433369;120;922485;-78
2021/11/16 02:52:14;;;;;;;8.11;7.28;;;;;;;-0.27;56.61;103127.29;433411;120;923321;-78
2021/11/16 02:53:18;;;;;;;8.43;6.81;;;;;;;-0.27;56.69;103121.93;433249;120;922678;-79
2021/11/16 02:54:21;;;;;;;9.86;6.51;;;;;;;-0.28;56.66;103133.62;433588;120;922570;-78
2021/11/16 02:55:25;;;;;;;7.90;6.25;;;;;;;-0.31;56.65;103140.00;432990;121;923116;-78
2021/11/16 02:56:31;;;;;;;6.51;5.64;;;;;;;-0.35;56.63;103133.09;433360;119;922736;-80
2021/11/16 02:57:35;;;;;;;9.17;5.79;;;;;;;-0.38;56.68;103140.41;433243;121;922565;-78
2021/11/16 02:58:39;;;;;;;6.04;5.31;;;;;;;-0.43;56.70;103144.20;434375;121;922673;-79
2021/11/16 02:59:43;;;;;;;7.94;6.69;;;;;;;-0.45;56.79;103142.56;433304;121;922611;-78
2021/11/16 03:00:51;;;;;;;7.66;6.86;;;;;;;-0.49;56.86;103139.16;433642;120;922782;-77
2021/11/16 03:01:55;;;;;;;8.03;6.88;;;;;;;-0.51;56.94;103134.84;434462;121;922751;-79
2021/11/16 03:02:59;;;;;;;10.01;7.31;;;;;;;-0.52;57.08;103125.94;426881;123;923278;-78
2021/11/16 03:04:04;;;;;;;9.07;7.36;;;;;;;-0.50;57.27;103132.06;426687;121;922856;-79
2021/11/16 03:05:08;;;;;;;7.46;6.52;;;;;;;-0.47;57.43;103125.69;433672;120;922692;-80
2021/11/16 03:06:14;;;;;;;6.48;5.91;;;;;;;-0.42;57.56;103123.62;434208;121;923213;-77
2021/11/16 03:07:32;;;;;;;9.46;8.44;;;;;;;-0.36;57.62;103127.80;433943;121;922743;-77
2021/11/16 03:08:36;;;;;;;25.03;16.08;;;;;;;-0.31;57.65;103128.41;433171;120;922734;-77
2021/11/16 03:09:49;;;;;;;18.96;14.79;;;;;;;-0.26;57.62;103129.90;433060;121;922722;-80
2021/11/16 03:10:56;;;;;;;14.33;10.86;;;;;;;-0.22;57.59;103122.58;434346;121;922857;-79
2021/11/16 03:12:01;;;;;;;12.52;11.15;;;;;;;-0.18;57.56;103126.81;433590;121;922798;-79
2021/11/16 03:13:04;;;;;;;12.06;10.68;;;;;;;-0.15;57.55;103129.31;433436;120;922801;-79
2021/11/16 03:14:08;;;;;;;13.18;10.58;;;;;;;-0.12;57.46;103121.99;433304;120;922797;-79
2021/11/16 03:15:12;;;;;;;21.14;14.54;;;;;;;-0.09;57.41;103116.45;434097;121;923470;-77
2021/11/16 03:16:19;;;;;;;19.85;13.67;;;;;;;-0.06;57.37;103120.79;433454;120;922672;-76
2021/11/16 03:17:25;;;;;;;17.87;13.31;;;;;;;-0.04;57.29;103117.06;433933;120;922539;-78
2021/11/16 03:18:28;;;;;;;17.11;12.56;;;;;;;-0.02;57.22;103114.30;433332;121;922586;-77
2021/11/16 03:19:33;;;;;;;14.79;12.66;;;;;;;-0.01;57.13;103122.27;434234;121;922559;-78
2021/11/16 03:20:37;;;;;;;15.94;12.92;;;;;;;0.01;57.00;103130.20;433890;120;922824;-77
2021/11/16 03:21:43;;;;;;;14.90;11.96;;;;;;;-0.01;56.80;103129.45;432476;121;930493;-78
2021/11/16 03:22:51;;;;;;;13.36;11.01;;;;;;;-0.03;56.61;103131.33;434077;121;922658;-78
2021/11/16 03:23:57;;;;;;;12.38;10.50;;;;;;;-0.08;56.50;103141.45;433994;120;923236;-75
2021/11/16 03:25:01;;;;;;;12.31;11.14;;;;;;;-0.16;56.44;103141.85;434169;121;922703;-78
2021/11/16 03:26:06;;;;;;;10.72;9.64;;;;;;;-0.23;56.38;103140.48;437347;119;922705;-77
2021/11/16 03:27:11;;;;;;;11.59;10.39;;;;;;;-0.32;56.31;103132.91;456294;114;930462;-78
2021/11/16 03:28:16;;;;;;;11.45;10.40;;;;;;;-0.42;56.32;103131.67;457216;114;929973;-78
2021/11/16 03:29:23;;;;;;;12.18;11.08;;;;;;;-0.49;56.43;103136.48;456911;113;922437;-76
2021/11/16 03:30:27;;;;;;;12.36;10.81;;;;;;;-0.55;56.52;103128.77;456820;114;922457;-78
2021/11/16 03:31:40;;;;;;;13.22;10.62;;;;;;;-0.61;56.54;103141.64;457319;114;922311;-78
2021/11/16 03:32:44;;;;;;;10.59;9.16;;;;;;;-0.68;56.61;103141.09;456531;113;923058;-78
2021/11/16 03:33:49;;;;;;;9.67;8.74;;;;;;;-0.74;56.83;103145.89;456612;114;922689;-78
2021/11/16 03:34:53;;;;;;;11.05;9.93;;;;;;;-0.80;56.97;103152.44;456069;114;922888;-78
2021/11/16 03:35:56;;;;;;;10.28;9.29;;;;;;;-0.85;57.14;103151.80;456384;115;930390;-77
2021/11/16 03:37:00;;;;;;;12.99;10.42;;;;;;;-0.90;57.29;103154.72;456511;113;922656;-79
2021/11/16 03:38:04;;;;;;;12.97;11.15;;;;;;;-0.91;57.39;103155.66;456067;113;922750;-77
2021/11/16 03:39:08;;;;;;;16.03;13.25;;;;;;;-0.92;57.56;103155.73;456350;113;922935;-78
2021/11/16 03:40:14;;;;;;;30.00;18.54;;;;;;;-0.92;57.72;103148.56;456449;115;922733;-77
2021/11/16 03:41:19;;;;;;;20.37;15.81;;;;;;;-0.91;57.89;103144.95;457047;113;923725;-78
2021/11/16 03:42:22;;;;;;;15.60;12.68;;;;;;;-0.90;57.99;103153.85;456243;114;922499;-78
2021/11/16 03:43:26;;;;;;;14.26;9.98;;;;;;;-0.89;57.96;103144.87;456672;116;922773;-77
2021/11/16 03:44:31;;;;;;;13.48;9.76;;;;;;;-0.89;57.92;103152.91;456023;115;922694;-77
2021/11/16 03:45:35;;;;;;;11.37;10.30;;;;;;;-0.89;57.86;103158.27;455506;113;923101;-78
2021/11/16 03:46:39;;;;;;;13.21;10.55;;;;;;;-0.92;57.82;103158.41;455986;114;930108;-76
2021/11/16 03:47:43;;;;;;;12.69;10.61;;;;;;;-0.95;57.82;103161.25;456460;114;922474;-78
2021/11/16 03:48:48;;;;;;;10.98;9.92;;;;;;;-0.98;57.90;103156.03;456444;114;922684;-78
2021/11/16 03:49:51;;;;;;;11.34;10.02;;;;;;;-1.00;57.94;103152.59;456214;113;922621;-77
2021/11/16 03:50:57;;;;;;;11.54;10.05;;;;;;;-1.02;57.99;103151.79;456336;113;931107;-79
2021/11/16 03:52:00;;;;;;;11.41;10.27;;;;;;;-1.05;58.12;103150.16;455668;114;922934;-77
2021/11/16 03:53:04;;;;;;;11.73;10.52;;;;;;;-1.05;58.29;103143.92;456337;113;922762;-78
2021/11/16 03:54:08;;;;;;;10.59;9.61;;;;;;;-1.05;58.31;103142.12;455580;113;922783;-78
2021/11/16 03:55:12;;;;;;;11.41;10.12;;;;;;;-1.02;58.45;103141.08;455811;114;923097;-79
2021/11/16 03:56:18;;;;;;;11.68;9.78;;;;;;;-1.02;58.41;103136.59;456376;114;922580;-77
2021/11/16 03:57:23;;;;;;;10.53;9.46;;;;;;;-1.00;58.57;103139.20;454775;113;922572;-78
2021/11/16 03:58:27;;;;;;;9.49;8.57;;;;;;;-0.98;58.71;103130.12;454849;113;922580;-77
2021/11/16 03:59:31;;;;;;;7.94;7.14;;;;;;;-0.92;58.74;103142.34;455174;113;923489;-78
2021/11/16 04:00:39;;;;;;;9.53;8.24;;;;;;;-0.88;58.57;103141.23;455770;113;930521;-78
2021/11/16 04:01:43;;;;;;;9.23;8.33;;;;;;;-0.85;58.43;103149.99;455800;114;922619;-78
2021/11/16 04:02:47;;;;;;;9.95;9.00;;;;;;;-0.79;58.41;103148.81;455941;114;922912;-78
2021/11/16 04:03:53;;;;;;;9.51;8.22;;;;;;;-0.76;58.38;103145.96;456273;114;922667;-76
2021/11/16 04:04:57;;;;;;;8.17;7.34;;;;;;;-0.71;58.36;103145.72;455788;113;923296;-78
2021/11/16 04:06:02;;;;;;;6.39;5.75;;;;;;;-0.67;58.37;103153.55;456030;113;922658;-77
2021/11/16 04:07:06;;;;;;;5.33;4.66;;;;;;;-0.63;58.25;103147.07;455863;114;923233;-78
2021/11/16 04:08:10;;;;;;;5.48;4.42;;;;;;;-0.59;57.85;103150.45;456331;114;922662;-78
2021/11/16 04:09:14;;;;;;;4.94;4.37;;;;;;;-0.58;57.66;103145.02;457125;114;922536;-78
2021/11/16 04:10:18;;;;;;;4.69;4.06;;;;;;;-0.56;57.56;103155.66;457160;114;923164;-78
2021/11/16 04:11:22;;;;;;;5.36;4.81;;;;;;;-0.56;57.40;103151.17;456582;113;922325;-77
2021/11/16 04:12:26;;;;;;;5.94;5.24;;;;;;;-0.55;57.34;103152.05;456531;113;922627;-78
2021/11/16 04:13:30;;;;;;;6.81;5.84;;;;;;;-0.54;57.29;103157.30;456516;115;923102;-77
2021/11/16 04:14:34;;;;;;;8.45;5.94;;;;;;;-0.56;57.26;103156.53;456502;113;922547;-77
2021/11/16 04:15:40;;;;;;;8.07;5.21;;;;;;;-0.56;57.19;103159.22;456714;114;922619;-78
2021/11/16 04:16:44;;;;;;;6.32;5.19;;;;;;;-0.58;57.25;103163.77;455641;113;930364;-77
2021/11/16 04:17:50;;;;;;;5.38;4.88;;;;;;;-0.57;57.35;103156.61;457436;116;922458;-79
2021/11/16 04:18:54;;;;;;;6.96;5.31;;;;;;;-0.55;57.36;103160.08;456631;113;922416;-79
2021/11/16 04:20:00;;;;;;;9.39;4.90;;;;;;;-0.55;57.14;103155.56;456334;114;922266;-77
2021/11/16 04:21:05;;;;;;;8.07;4.79;;;;;;;-0.55;57.14;103155.56;456943;113;922132;-77
2021/11/16 04:22:09;;;;;;;5.11;4.22;;;;;;;-0.53;57.12;103160.84;457954;113;930848;-77
2021/11/16 04:23:15;;;;;;;5.64;4.29;;;;;;;-0.54;57.10;103165.34;457301;113;922280;-77
2021/11/16 04:24:18;;;;;;;4.97;3.94;;;;;;;-0.52;57.24;103160.78;457119;114;930286;-78
2021/11/16 04:25:23;;;;;;;4.21;3.72;;;;;;;-0.49;57.07;103165.09;455639;114;923531;-77
2021/11/16 04:26:28;;;;;;;4.61;3.45;;;;;;;-0.46;56.90;103172.98;456510;113;930477;-76
2021/11/16 04:27:32;;;;;;;5.15;4.62;;;;;;;-0.43;56.83;103180.86;456404;114;922578;-77
2021/11/16 04:28:35;;;;;;;6.68;5.29;;;;;;;-0.40;56.77;103174.48;455719;113;922523;-77
2021/11/16 04:29:39;;;;;;;7.48;5.88;;;;;;;-0.40;56.69;103178.03;449128;117;922602;-78
2021/11/16 04:30:45;;;;;;;5.75;4.91;;;;;;;-0.40;56.66;103175.35;448377;115;923110;-76
2021/11/16 04:31:48;;;;;;;5.46;4.49;;;;;;;-0.38;56.68;103180.61;455854;114;922678;-78
2021/11/16 04:32:54;;;;;;;5.33;4.22;;;;;;;-0.38;56.55;103180.61;456108;113;922935;-77
2021/11/16 04:34:08;;;;;;;6.35;4.15;;;;;;;-0.36;56.54;103187.64;456506;114;922892;-79
2021/11/16 04:35:14;;;;;;;5.71;3.89;;;;;;;-0.35;56.46;103188.50;447997;116;930624;-77
2021/11/16 04:36:23;;;;;;;4.49;3.57;;;;;;;-0.35;56.39;103192.05;442040;117;922764;-78
2021/11/16 04:37:26;;;;;;;6.57;4.26;;;;;;;-0.36;56.26;103190.31;449552;115;922560;-78
2021/11/16 04:38:30;;;;;;;7.51;3.62;;;;;;;-0.38;56.22;103196.69;456326;115;922526;-79
2021/11/16 04:39:34;;;;;;;4.19;3.62;;;;;;;-0.39;56.30;103195.85;456359;114;922740;-78
2021/11/16 04:40:42;;;;;;;6.03;3.69;;;;;;;-0.37;56.43;103187.70;456073;114;922656;-79
2021/11/16 04:41:46;;;;;;;13.10;7.49;;;;;;;-0.35;56.51;103192.05;456399;114;930580;-79
2021/11/16 04:42:50;;;;;;;16.60;10.62;;;;;;;-0.31;56.54;103182.89;448156;117;922734;-77
2021/11/16 04:43:56;;;;;;;26.97;17.10;;;;;;;-0.26;56.43;103193.37;448538;116;922632;-79
2021/11/16 04:45:00;;;;;;;52.69;27.09;;;;;;;-0.24;56.41;103181.63;455642;113;923200;-77
2021/11/16 04:46:06;;;;;;;86.23;44.05;;;;;;;-0.21;56.35;103180.59;454802;113;923405;-77
2021/11/16 04:47:11;;;;;;;91.65;45.15;;;;;;;-0.19;56.25;103176.89;456047;115;930947;-78
2021/11/16 04:49:47;;;;;;;96.63;40.44;;;;;;;-0.15;55.99;103182.94;455588;114;922544;-77
2021/11/16 04:53:25;;;;;;;84.38;34.98;;;;;;;-0.19;55.68;103189.42;460391;111;922682;-78
2021/11/16 05:02:33;;;;;;;18.71;12.29;;;;;;;-0.30;55.84;103200.72;459159;114;923130;-78
2021/11/16 05:02:44;;;;;;;23.30;10.04;;;;;;;-0.29;55.67;103205.14;458506;111;922859;-77
2021/11/16 05:03:48;;;;;;;21.23;12.54;;;;;;;-0.32;55.47;103207.09;458422;114;923174;-78
2021/11/16 05:04:53;;;;;;;16.04;9.94;;;;;;;-0.36;55.52;103203.72;450950;114;922804;-77
2021/11/16 05:05:57;;;;;;;15.52;10.46;;;;;;;-0.38;55.56;103207.41;452769;112;922733;-77
2021/11/16 05:07:01;;;;;;;14.03;8.76;;;;;;;-0.39;55.65;103201.22;461101;111;922473;-79
2021/11/16 05:08:05;;;;;;;14.77;9.52;;;;;;;-0.38;55.80;103197.56;461649;112;930135;-78
2021/11/16 05:09:09;;;;;;;11.06;8.48;;;;;;;-0.35;55.80;103192.05;461220;111;922622;-77
2021/11/16 05:10:14;;;;;;;17.37;10.78;;;;;;;-0.30;55.82;103197.17;460782;111;922597;-77